sensor_id;sensor_type;location;lat;lon;timestamp;P1;durP1;ratioP1;P2;durP2;ratioP2
13250;SDS011;6692;50.710;7.180;2022-10-31T00:01:41;26.47;;;25.13;;
13250;SDS011;6692;50.710;7.180;2022-10-31T00:03:42;25.83;;;24.53;;
13250;SDS011;6692;50.710;7.180;2022-10-31T00:05:43;25.20;;;24.00;;
13250;SDS011;6692;50.710;7.180;2022-10-31T00:07:44;28.97;;;27.67;;
13250;SDS011;6692;50.710;7.180;2022-10-31T00:09:46;27.50;;;26.17;;
13250;SDS011;6692;50.710;7.180;2022-10-31T00:11:46;26.20;;;25.03;;
13250;SDS011;6692;50.710;7.180;2022-10-31T00:13:47;27.30;;;25.97;;
13250;SDS011;6692;50.710;7.180;2022-10-31T00:15:48;27.63;;;26.40;;
13250;SDS011;6692;50.710;7.180;2022-10-31T00:17:48;29.70;;;28.13;;
13250;SDS011;6692;50.710;7.180;2022-10-31T00:19:49;31.17;;;29.47;;
13250;SDS011;6692;50.710;7.180;2022-10-31T00:21:51;30.97;;;29.43;;
13250;SDS011;6692;50.710;7.180;2022-10-31T00:23:50;29.83;;;28.43;;
13250;SDS011;6692;50.710;7.180;2022-10-31T00:25:51;24.93;;;23.63;;
13250;SDS011;6692;50.710;7.180;2022-10-31T00:27:52;25.97;;;24.67;;
13250;SDS011;6692;50.710;7.180;2022-10-31T00:29:53;25.53;;;24.40;;
13250;SDS011;6692;50.710;7.180;2022-10-31T00:31:55;26.07;;;24.90;;
13250;SDS011;6692;50.710;7.180;2022-10-31T00:33:56;25.43;;;24.13;;
13250;SDS011;6692;50.710;7.180;2022-10-31T00:35:56;27.27;;;26.07;;
13250;SDS011;6692;50.710;7.180;2022-10-31T00:37:57;27.10;;;25.80;;
13250;SDS011;6692;50.710;7.180;2022-10-31T00:39:58;31.27;;;29.80;;
13250;SDS011;6692;50.710;7.180;2022-10-31T00:42:00;28.47;;;27.10;;
13250;SDS011;6692;50.710;7.180;2022-10-31T00:44:00;29.43;;;27.97;;
13250;SDS011;6692;50.710;7.180;2022-10-31T00:46:01;27.97;;;26.63;;
13250;SDS011;6692;50.710;7.180;2022-10-31T00:48:01;25.87;;;24.63;;
13250;SDS011;6692;50.710;7.180;2022-10-31T00:50:04;26.43;;;25.13;;
13250;SDS011;6692;50.710;7.180;2022-10-31T00:52:04;29.73;;;28.20;;
13250;SDS011;6692;50.710;7.180;2022-10-31T00:54:05;27.20;;;25.83;;
13250;SDS011;6692;50.710;7.180;2022-10-31T00:56:06;27.20;;;25.70;;
13250;SDS011;6692;50.710;7.180;2022-10-31T00:58:07;27.17;;;25.77;;
13250;SDS011;6692;50.710;7.180;2022-10-31T01:00:09;29.03;;;27.63;;
13250;SDS011;6692;50.710;7.180;2022-10-31T01:02:11;24.20;;;22.97;;
13250;SDS011;6692;50.710;7.180;2022-10-31T01:04:12;21.90;;;20.70;;
13250;SDS011;6692;50.710;7.180;2022-10-31T01:06:13;21.87;;;20.87;;
13250;SDS011;6692;50.710;7.180;2022-10-31T01:08:14;23.23;;;22.00;;
13250;SDS011;6692;50.710;7.180;2022-10-31T01:10:16;22.17;;;21.00;;
13250;SDS011;6692;50.710;7.180;2022-10-31T01:12:16;25.17;;;23.73;;
13250;SDS011;6692;50.710;7.180;2022-10-31T01:14:18;26.03;;;24.80;;
13250;SDS011;6692;50.710;7.180;2022-10-31T01:16:21;24.10;;;22.30;;
13250;SDS011;6692;50.710;7.180;2022-10-31T01:18:21;22.27;;;21.10;;
13250;SDS011;6692;50.710;7.180;2022-10-31T01:20:21;23.67;;;22.37;;
13250;SDS011;6692;50.710;7.180;2022-10-31T01:22:22;23.33;;;22.03;;
13250;SDS011;6692;50.710;7.180;2022-10-31T01:24:23;21.57;;;20.53;;
13250;SDS011;6692;50.710;7.180;2022-10-31T01:26:25;23.50;;;21.97;;
13250;SDS011;6692;50.710;7.180;2022-10-31T01:28:25;22.70;;;21.57;;
13250;SDS011;6692;50.710;7.180;2022-10-31T01:30:26;23.00;;;21.90;;
13250;SDS011;6692;50.710;7.180;2022-10-31T01:32:27;24.33;;;23.00;;
13250;SDS011;6692;50.710;7.180;2022-10-31T01:34:28;22.53;;;21.40;;
13250;SDS011;6692;50.710;7.180;2022-10-31T01:36:29;23.70;;;22.57;;
13250;SDS011;6692;50.710;7.180;2022-10-31T01:38:30;22.97;;;21.77;;
13250;SDS011;6692;50.710;7.180;2022-10-31T01:40:30;24.13;;;23.00;;
13250;SDS011;6692;50.710;7.180;2022-10-31T01:42:30;23.90;;;22.83;;
13250;SDS011;6692;50.710;7.180;2022-10-31T01:46:52;21.27;;;20.07;;
13250;SDS011;6692;50.710;7.180;2022-10-31T01:48:54;20.73;;;19.63;;
13250;SDS011;6692;50.710;7.180;2022-10-31T01:50:54;23.30;;;22.10;;
13250;SDS011;6692;50.710;7.180;2022-10-31T01:52:55;20.70;;;19.70;;
13250;SDS011;6692;50.710;7.180;2022-10-31T01:55:01;25.20;;;23.80;;
13250;SDS011;6692;50.710;7.180;2022-10-31T01:57:02;22.23;;;21.17;;
13250;SDS011;6692;50.710;7.180;2022-10-31T01:59:02;24.53;;;23.10;;
13250;SDS011;6692;50.710;7.180;2022-10-31T02:01:04;23.30;;;22.13;;
13250;SDS011;6692;50.710;7.180;2022-10-31T02:03:04;23.50;;;22.30;;
13250;SDS011;6692;50.710;7.180;2022-10-31T02:05:06;24.17;;;22.90;;
13250;SDS011;6692;50.710;7.180;2022-10-31T02:07:08;22.87;;;21.67;;
13250;SDS011;6692;50.710;7.180;2022-10-31T02:09:08;22.00;;;20.80;;
13250;SDS011;6692;50.710;7.180;2022-10-31T02:11:08;24.27;;;23.07;;
13250;SDS011;6692;50.710;7.180;2022-10-31T02:13:10;23.27;;;22.07;;
13250;SDS011;6692;50.710;7.180;2022-10-31T02:15:11;26.03;;;24.77;;
13250;SDS011;6692;50.710;7.180;2022-10-31T02:17:13;25.40;;;24.10;;
13250;SDS011;6692;50.710;7.180;2022-10-31T02:19:14;23.37;;;22.27;;
13250;SDS011;6692;50.710;7.180;2022-10-31T02:23:44;21.87;;;20.83;;
13250;SDS011;6692;50.710;7.180;2022-10-31T02:28:19;19.07;;;17.97;;
13250;SDS011;6692;50.710;7.180;2022-10-31T02:30:41;17.43;;;16.60;;
13250;SDS011;6692;50.710;7.180;2022-10-31T02:32:58;20.60;;;19.50;;
13250;SDS011;6692;50.710;7.180;2022-10-31T02:35:00;18.67;;;17.67;;
13250;SDS011;6692;50.710;7.180;2022-10-31T02:37:08;22.50;;;21.17;;
13250;SDS011;6692;50.710;7.180;2022-10-31T02:39:24;18.87;;;17.93;;
13250;SDS011;6692;50.710;7.180;2022-10-31T02:41:27;23.23;;;22.10;;
13250;SDS011;6692;50.710;7.180;2022-10-31T02:43:32;23.00;;;21.87;;
13250;SDS011;6692;50.710;7.180;2022-10-31T02:45:55;20.37;;;19.37;;
13250;SDS011;6692;50.710;7.180;2022-10-31T02:47:54;17.50;;;16.60;;
13250;SDS011;6692;50.710;7.180;2022-10-31T02:49:57;20.80;;;19.73;;
13250;SDS011;6692;50.710;7.180;2022-10-31T02:52:00;19.60;;;18.73;;
13250;SDS011;6692;50.710;7.180;2022-10-31T02:54:00;20.80;;;19.73;;
13250;SDS011;6692;50.710;7.180;2022-10-31T02:56:02;19.37;;;18.37;;
13250;SDS011;6692;50.710;7.180;2022-10-31T02:58:05;21.20;;;20.27;;
13250;SDS011;6692;50.710;7.180;2022-10-31T03:00:07;19.07;;;17.87;;
13250;SDS011;6692;50.710;7.180;2022-10-31T03:02:11;19.70;;;18.70;;
13250;SDS011;6692;50.710;7.180;2022-10-31T03:04:16;18.80;;;17.80;;
13250;SDS011;6692;50.710;7.180;2022-10-31T03:06:20;20.70;;;19.67;;
13250;SDS011;6692;50.710;7.180;2022-10-31T03:08:41;18.80;;;17.80;;
13250;SDS011;6692;50.710;7.180;2022-10-31T03:10:47;20.67;;;19.63;;
13250;SDS011;6692;50.710;7.180;2022-10-31T03:12:49;20.93;;;19.63;;
13250;SDS011;6692;50.710;7.180;2022-10-31T03:14:51;20.17;;;19.13;;
13250;SDS011;6692;50.710;7.180;2022-10-31T03:16:50;23.10;;;21.77;;
13250;SDS011;6692;50.710;7.180;2022-10-31T03:18:52;21.03;;;19.73;;
13250;SDS011;6692;50.710;7.180;2022-10-31T03:20:55;21.57;;;20.43;;
13250;SDS011;6692;50.710;7.180;2022-10-31T03:22:54;19.87;;;18.87;;
13250;SDS011;6692;50.710;7.180;2022-10-31T03:24:55;22.00;;;20.70;;
13250;SDS011;6692;50.710;7.180;2022-10-31T03:26:56;20.43;;;19.37;;
13250;SDS011;6692;50.710;7.180;2022-10-31T03:29:01;22.23;;;21.13;;
13250;SDS011;6692;50.710;7.180;2022-10-31T03:30:58;21.87;;;20.67;;
13250;SDS011;6692;50.710;7.180;2022-10-31T03:33:00;19.97;;;18.93;;
13250;SDS011;6692;50.710;7.180;2022-10-31T03:35:02;20.90;;;19.60;;
13250;SDS011;6692;50.710;7.180;2022-10-31T03:37:03;20.47;;;19.17;;
13250;SDS011;6692;50.710;7.180;2022-10-31T03:39:04;20.87;;;19.77;;
13250;SDS011;6692;50.710;7.180;2022-10-31T03:41:03;18.40;;;17.40;;
13250;SDS011;6692;50.710;7.180;2022-10-31T03:43:06;19.63;;;18.60;;
13250;SDS011;6692;50.710;7.180;2022-10-31T03:45:06;19.40;;;18.30;;
13250;SDS011;6692;50.710;7.180;2022-10-31T03:47:08;17.97;;;16.87;;
13250;SDS011;6692;50.710;7.180;2022-10-31T03:49:10;17.00;;;15.97;;
13250;SDS011;6692;50.710;7.180;2022-10-31T03:53:22;16.73;;;15.43;;
13250;SDS011;6692;50.710;7.180;2022-10-31T03:55:24;16.97;;;15.97;;
13250;SDS011;6692;50.710;7.180;2022-10-31T03:57:26;18.20;;;17.20;;
13250;SDS011;6692;50.710;7.180;2022-10-31T03:59:27;17.07;;;16.17;;
13250;SDS011;6692;50.710;7.180;2022-10-31T04:01:26;17.47;;;16.40;;
13250;SDS011;6692;50.710;7.180;2022-10-31T04:03:29;16.40;;;15.10;;
13250;SDS011;6692;50.710;7.180;2022-10-31T04:05:29;16.80;;;15.87;;
13250;SDS011;6692;50.710;7.180;2022-10-31T04:07:30;15.07;;;14.17;;
13250;SDS011;6692;50.710;7.180;2022-10-31T04:09:31;17.03;;;15.83;;
13250;SDS011;6692;50.710;7.180;2022-10-31T04:11:33;14.87;;;14.00;;
13250;SDS011;6692;50.710;7.180;2022-10-31T04:13:33;14.67;;;13.93;;
13250;SDS011;6692;50.710;7.180;2022-10-31T04:15:34;17.37;;;16.37;;
13250;SDS011;6692;50.710;7.180;2022-10-31T04:17:36;16.50;;;15.57;;
13250;SDS011;6692;50.710;7.180;2022-10-31T04:19:35;14.07;;;13.23;;
13250;SDS011;6692;50.710;7.180;2022-10-31T04:21:36;14.70;;;13.80;;
13250;SDS011;6692;50.710;7.180;2022-10-31T04:23:36;14.40;;;13.50;;
13250;SDS011;6692;50.710;7.180;2022-10-31T04:25:37;13.70;;;12.87;;
13250;SDS011;6692;50.710;7.180;2022-10-31T04:27:38;14.43;;;13.53;;
13250;SDS011;6692;50.710;7.180;2022-10-31T04:29:38;14.67;;;13.77;;
13250;SDS011;6692;50.710;7.180;2022-10-31T04:31:39;15.13;;;14.17;;
13250;SDS011;6692;50.710;7.180;2022-10-31T04:33:40;15.53;;;14.53;;
13250;SDS011;6692;50.710;7.180;2022-10-31T04:35:41;13.77;;;12.87;;
13250;SDS011;6692;50.710;7.180;2022-10-31T04:37:42;13.93;;;13.03;;
13250;SDS011;6692;50.710;7.180;2022-10-31T04:39:43;13.37;;;12.47;;
13250;SDS011;6692;50.710;7.180;2022-10-31T04:41:44;12.87;;;12.03;;
13250;SDS011;6692;50.710;7.180;2022-10-31T04:43:44;12.03;;;11.13;;
13250;SDS011;6692;50.710;7.180;2022-10-31T04:45:45;12.40;;;11.60;;
13250;SDS011;6692;50.710;7.180;2022-10-31T04:47:46;12.13;;;11.37;;
13250;SDS011;6692;50.710;7.180;2022-10-31T04:49:47;10.83;;;10.17;;
13250;SDS011;6692;50.710;7.180;2022-10-31T04:51:48;11.07;;;10.20;;
13250;SDS011;6692;50.710;7.180;2022-10-31T04:53:49;12.53;;;11.70;;
13250;SDS011;6692;50.710;7.180;2022-10-31T04:55:50;11.70;;;10.90;;
13250;SDS011;6692;50.710;7.180;2022-10-31T04:57:51;11.90;;;11.13;;
13250;SDS011;6692;50.710;7.180;2022-10-31T04:59:52;11.80;;;10.90;;
13250;SDS011;6692;50.710;7.180;2022-10-31T05:01:52;12.17;;;11.27;;
13250;SDS011;6692;50.710;7.180;2022-10-31T05:03:53;11.10;;;10.20;;
13250;SDS011;6692;50.710;7.180;2022-10-31T05:05:54;11.57;;;10.60;;
13250;SDS011;6692;50.710;7.180;2022-10-31T05:07:55;12.50;;;11.70;;
13250;SDS011;6692;50.710;7.180;2022-10-31T05:09:56;12.27;;;11.33;;
13250;SDS011;6692;50.710;7.180;2022-10-31T05:11:56;13.73;;;12.73;;
13250;SDS011;6692;50.710;7.180;2022-10-31T05:13:57;12.30;;;11.37;;
13250;SDS011;6692;50.710;7.180;2022-10-31T05:15:58;12.57;;;11.67;;
13250;SDS011;6692;50.710;7.180;2022-10-31T05:17:59;12.30;;;11.40;;
13250;SDS011;6692;50.710;7.180;2022-10-31T05:20:00;12.57;;;11.60;;
13250;SDS011;6692;50.710;7.180;2022-10-31T05:22:00;12.47;;;11.67;;
13250;SDS011;6692;50.710;7.180;2022-10-31T05:24:01;12.17;;;11.27;;
13250;SDS011;6692;50.710;7.180;2022-10-31T05:26:02;12.03;;;11.23;;
13250;SDS011;6692;50.710;7.180;2022-10-31T05:28:02;11.80;;;11.00;;
13250;SDS011;6692;50.710;7.180;2022-10-31T05:30:04;12.57;;;11.77;;
13250;SDS011;6692;50.710;7.180;2022-10-31T05:32:06;11.13;;;10.33;;
13250;SDS011;6692;50.710;7.180;2022-10-31T05:34:06;11.47;;;10.77;;
13250;SDS011;6692;50.710;7.180;2022-10-31T05:36:07;11.30;;;10.60;;
13250;SDS011;6692;50.710;7.180;2022-10-31T05:38:08;12.60;;;11.60;;
13250;SDS011;6692;50.710;7.180;2022-10-31T05:40:09;11.90;;;11.10;;
13250;SDS011;6692;50.710;7.180;2022-10-31T05:42:10;10.93;;;9.97;;
13250;SDS011;6692;50.710;7.180;2022-10-31T05:44:10;10.93;;;10.23;;
13250;SDS011;6692;50.710;7.180;2022-10-31T05:46:11;9.83;;;9.17;;
13250;SDS011;6692;50.710;7.180;2022-10-31T05:48:12;10.03;;;9.33;;
13250;SDS011;6692;50.710;7.180;2022-10-31T05:50:13;10.23;;;9.53;;
13250;SDS011;6692;50.710;7.180;2022-10-31T05:52:14;10.70;;;9.90;;
13250;SDS011;6692;50.710;7.180;2022-10-31T05:54:14;11.47;;;10.67;;
13250;SDS011;6692;50.710;7.180;2022-10-31T05:56:15;10.10;;;9.30;;
13250;SDS011;6692;50.710;7.180;2022-10-31T05:58:15;10.23;;;9.53;;
13250;SDS011;6692;50.710;7.180;2022-10-31T06:00:16;11.03;;;10.33;;
13250;SDS011;6692;50.710;7.180;2022-10-31T06:02:19;12.40;;;11.60;;
13250;SDS011;6692;50.710;7.180;2022-10-31T06:04:19;13.30;;;12.30;;
13250;SDS011;6692;50.710;7.180;2022-10-31T06:06:20;11.30;;;10.60;;
13250;SDS011;6692;50.710;7.180;2022-10-31T06:08:20;11.10;;;10.40;;
13250;SDS011;6692;50.710;7.180;2022-10-31T06:10:21;12.13;;;11.13;;
13250;SDS011;6692;50.710;7.180;2022-10-31T06:12:22;10.90;;;9.97;;
13250;SDS011;6692;50.710;7.180;2022-10-31T06:14:22;10.23;;;9.43;;
13250;SDS011;6692;50.710;7.180;2022-10-31T06:16:24;10.40;;;9.50;;
13250;SDS011;6692;50.710;7.180;2022-10-31T06:18:25;11.50;;;10.70;;
13250;SDS011;6692;50.710;7.180;2022-10-31T06:20:26;11.20;;;10.27;;
13250;SDS011;6692;50.710;7.180;2022-10-31T06:22:27;11.03;;;10.23;;
13250;SDS011;6692;50.710;7.180;2022-10-31T06:24:28;10.40;;;9.60;;
13250;SDS011;6692;50.710;7.180;2022-10-31T06:26:29;11.60;;;10.70;;
13250;SDS011;6692;50.710;7.180;2022-10-31T06:28:30;11.97;;;11.17;;
13250;SDS011;6692;50.710;7.180;2022-10-31T06:30:31;12.67;;;11.67;;
13250;SDS011;6692;50.710;7.180;2022-10-31T06:32:32;13.70;;;12.80;;
13250;SDS011;6692;50.710;7.180;2022-10-31T06:34:32;12.87;;;11.87;;
13250;SDS011;6692;50.710;7.180;2022-10-31T06:36:34;13.13;;;12.13;;
13250;SDS011;6692;50.710;7.180;2022-10-31T06:38:34;12.23;;;11.43;;
13250;SDS011;6692;50.710;7.180;2022-10-31T06:40:35;12.60;;;11.70;;
13250;SDS011;6692;50.710;7.180;2022-10-31T06:42:36;12.63;;;11.73;;
13250;SDS011;6692;50.710;7.180;2022-10-31T06:44:36;13.47;;;12.43;;
13250;SDS011;6692;50.710;7.180;2022-10-31T06:46:37;15.30;;;14.30;;
13250;SDS011;6692;50.710;7.180;2022-10-31T06:48:40;14.37;;;13.53;;
13250;SDS011;6692;50.710;7.180;2022-10-31T06:50:39;16.53;;;15.13;;
13250;SDS011;6692;50.710;7.180;2022-10-31T06:52:40;17.70;;;16.60;;
13250;SDS011;6692;50.710;7.180;2022-10-31T06:54:42;15.93;;;15.00;;
13250;SDS011;6692;50.710;7.180;2022-10-31T06:56:45;17.03;;;16.03;;
13250;SDS011;6692;50.710;7.180;2022-10-31T06:58:44;19.43;;;18.17;;
13250;SDS011;6692;50.710;7.180;2022-10-31T07:00:46;20.67;;;19.43;;
13250;SDS011;6692;50.710;7.180;2022-10-31T07:02:53;19.63;;;18.53;;
13250;SDS011;6692;50.710;7.180;2022-10-31T07:04:53;21.07;;;19.67;;
13250;SDS011;6692;50.710;7.180;2022-10-31T07:06:54;23.07;;;21.83;;
13250;SDS011;6692;50.710;7.180;2022-10-31T07:08:54;23.03;;;21.77;;
13250;SDS011;6692;50.710;7.180;2022-10-31T07:10:57;24.17;;;22.77;;
13250;SDS011;6692;50.710;7.180;2022-10-31T07:12:57;24.60;;;23.33;;
13250;SDS011;6692;50.710;7.180;2022-10-31T07:14:58;25.87;;;24.53;;
13250;SDS011;6692;50.710;7.180;2022-10-31T07:16:59;24.30;;;23.00;;
13250;SDS011;6692;50.710;7.180;2022-10-31T07:19:00;25.20;;;23.70;;
13250;SDS011;6692;50.710;7.180;2022-10-31T07:21:01;25.77;;;24.37;;
13250;SDS011;6692;50.710;7.180;2022-10-31T07:23:03;27.03;;;25.67;;
13250;SDS011;6692;50.710;7.180;2022-10-31T07:25:03;26.27;;;24.87;;
13250;SDS011;6692;50.710;7.180;2022-10-31T07:27:05;29.37;;;27.70;;
13250;SDS011;6692;50.710;7.180;2022-10-31T07:29:06;27.50;;;26.03;;
13250;SDS011;6692;50.710;7.180;2022-10-31T07:31:07;28.70;;;27.37;;
13250;SDS011;6692;50.710;7.180;2022-10-31T07:33:08;29.23;;;27.67;;
13250;SDS011;6692;50.710;7.180;2022-10-31T07:35:10;28.80;;;27.27;;
13250;SDS011;6692;50.710;7.180;2022-10-31T07:37:10;31.93;;;30.33;;
13250;SDS011;6692;50.710;7.180;2022-10-31T07:39:10;34.50;;;32.80;;
13250;SDS011;6692;50.710;7.180;2022-10-31T07:41:11;33.93;;;32.17;;
13250;SDS011;6692;50.710;7.180;2022-10-31T07:43:12;33.90;;;32.10;;
13250;SDS011;6692;50.710;7.180;2022-10-31T07:45:14;33.03;;;31.27;;
13250;SDS011;6692;50.710;7.180;2022-10-31T07:47:15;35.73;;;34.03;;
13250;SDS011;6692;50.710;7.180;2022-10-31T07:49:15;32.43;;;30.73;;
13250;SDS011;6692;50.710;7.180;2022-10-31T07:51:16;33.50;;;31.30;;
13250;SDS011;6692;50.710;7.180;2022-10-31T07:53:16;36.07;;;34.27;;
13250;SDS011;6692;50.710;7.180;2022-10-31T07:55:17;40.33;;;38.27;;
13250;SDS011;6692;50.710;7.180;2022-10-31T07:57:18;40.27;;;38.40;;
13250;SDS011;6692;50.710;7.180;2022-10-31T07:59:18;42.73;;;40.67;;
13250;SDS011;6692;50.710;7.180;2022-10-31T08:01:19;46.37;;;44.20;;
13250;SDS011;6692;50.710;7.180;2022-10-31T08:03:20;42.57;;;40.40;;
13250;SDS011;6692;50.710;7.180;2022-10-31T08:05:20;38.97;;;37.00;;
13250;SDS011;6692;50.710;7.180;2022-10-31T08:07:22;39.53;;;37.60;;
13250;SDS011;6692;50.710;7.180;2022-10-31T08:09:23;40.33;;;38.07;;
13250;SDS011;6692;50.710;7.180;2022-10-31T08:11:24;44.13;;;41.80;;
13250;SDS011;6692;50.710;7.180;2022-10-31T08:13:24;41.80;;;39.70;;
13250;SDS011;6692;50.710;7.180;2022-10-31T08:15:25;43.67;;;41.50;;
13250;SDS011;6692;50.710;7.180;2022-10-31T08:17:26;44.17;;;41.83;;
13250;SDS011;6692;50.710;7.180;2022-10-31T08:19:27;52.07;;;49.30;;
13250;SDS011;6692;50.710;7.180;2022-10-31T08:21:28;49.90;;;47.50;;
13250;SDS011;6692;50.710;7.180;2022-10-31T08:23:28;52.60;;;50.00;;
13250;SDS011;6692;50.710;7.180;2022-10-31T08:25:29;57.23;;;54.50;;
13250;SDS011;6692;50.710;7.180;2022-10-31T08:27:30;57.80;;;55.03;;
13250;SDS011;6692;50.710;7.180;2022-10-31T08:29:31;60.80;;;57.97;;
13250;SDS011;6692;50.710;7.180;2022-10-31T08:31:32;65.23;;;62.10;;
13250;SDS011;6692;50.710;7.180;2022-10-31T08:33:32;70.23;;;66.87;;
13250;SDS011;6692;50.710;7.180;2022-10-31T08:35:33;71.07;;;67.73;;
13250;SDS011;6692;50.710;7.180;2022-10-31T08:37:34;77.03;;;73.60;;
13250;SDS011;6692;50.710;7.180;2022-10-31T08:39:36;77.30;;;73.77;;
13250;SDS011;6692;50.710;7.180;2022-10-31T08:41:36;81.63;;;77.97;;
13250;SDS011;6692;50.710;7.180;2022-10-31T08:43:37;84.70;;;81.07;;
13250;SDS011;6692;50.710;7.180;2022-10-31T08:45:38;84.43;;;80.90;;
13250;SDS011;6692;50.710;7.180;2022-10-31T08:47:38;82.93;;;79.43;;
13250;SDS011;6692;50.710;7.180;2022-10-31T08:49:39;92.27;;;88.40;;
13250;SDS011;6692;50.710;7.180;2022-10-31T08:51:40;91.90;;;87.73;;
13250;SDS011;6692;50.710;7.180;2022-10-31T08:53:40;103.70;;;99.57;;
13250;SDS011;6692;50.710;7.180;2022-10-31T08:55:41;105.10;;;100.77;;
13250;SDS011;6692;50.710;7.180;2022-10-31T08:57:42;103.90;;;99.60;;
13250;SDS011;6692;50.710;7.180;2022-10-31T08:59:42;113.77;;;109.20;;
13250;SDS011;6692;50.710;7.180;2022-10-31T09:01:44;127.80;;;122.80;;
13250;SDS011;6692;50.710;7.180;2022-10-31T09:03:44;126.60;;;121.47;;
13250;SDS011;6692;50.710;7.180;2022-10-31T09:05:45;135.47;;;130.23;;
13250;SDS011;6692;50.710;7.180;2022-10-31T09:07:45;125.10;;;119.93;;
13250;SDS011;6692;50.710;7.180;2022-10-31T09:09:46;113.63;;;109.00;;
13250;SDS011;6692;50.710;7.180;2022-10-31T09:11:47;102.93;;;98.10;;
13250;SDS011;6692;50.710;7.180;2022-10-31T09:13:47;127.43;;;122.50;;
13250;SDS011;6692;50.710;7.180;2022-10-31T09:15:48;131.10;;;125.93;;
13250;SDS011;6692;50.710;7.180;2022-10-31T09:17:49;128.03;;;122.97;;
13250;SDS011;6692;50.710;7.180;2022-10-31T09:19:49;117.53;;;112.73;;
13250;SDS011;6692;50.710;7.180;2022-10-31T09:21:52;128.23;;;122.87;;
13250;SDS011;6692;50.710;7.180;2022-10-31T09:23:51;128.77;;;123.57;;
13250;SDS011;6692;50.710;7.180;2022-10-31T09:25:52;125.83;;;120.40;;
13250;SDS011;6692;50.710;7.180;2022-10-31T09:27:55;102.93;;;98.27;;
13250;SDS011;6692;50.710;7.180;2022-10-31T09:29:55;115.47;;;110.87;;
13250;SDS011;6692;50.710;7.180;2022-10-31T09:31:56;104.73;;;99.93;;
13250;SDS011;6692;50.710;7.180;2022-10-31T09:33:57;109.23;;;104.50;;
13250;SDS011;6692;50.710;7.180;2022-10-31T09:35:59;115.73;;;110.77;;
13250;SDS011;6692;50.710;7.180;2022-10-31T09:38:00;134.13;;;128.53;;
13250;SDS011;6692;50.710;7.180;2022-10-31T09:40:00;128.90;;;123.57;;
13250;SDS011;6692;50.710;7.180;2022-10-31T09:42:04;121.83;;;116.57;;
13250;SDS011;6692;50.710;7.180;2022-10-31T09:44:06;121.43;;;116.13;;
13250;SDS011;6692;50.710;7.180;2022-10-31T09:46:55;112.50;;;107.73;;
13250;SDS011;6692;50.710;7.180;2022-10-31T09:48:55;117.43;;;112.43;;
13250;SDS011;6692;50.710;7.180;2022-10-31T09:51:14;121.30;;;116.23;;
13250;SDS011;6692;50.710;7.180;2022-10-31T09:53:19;128.23;;;123.03;;
13250;SDS011;6692;50.710;7.180;2022-10-31T09:55:35;118.47;;;113.77;;
13250;SDS011;6692;50.710;7.180;2022-10-31T09:57:41;113.33;;;108.83;;
13250;SDS011;6692;50.710;7.180;2022-10-31T09:59:43;117.33;;;112.33;;
13250;SDS011;6692;50.710;7.180;2022-10-31T10:01:46;128.03;;;122.83;;
13250;SDS011;6692;50.710;7.180;2022-10-31T10:03:47;131.87;;;126.50;;
13250;SDS011;6692;50.710;7.180;2022-10-31T10:05:52;129.73;;;124.60;;
13250;SDS011;6692;50.710;7.180;2022-10-31T10:10:05;111.23;;;106.57;;
13250;SDS011;6692;50.710;7.180;2022-10-31T10:12:09;121.80;;;116.90;;
13250;SDS011;6692;50.710;7.180;2022-10-31T10:14:16;123.77;;;118.73;;
13250;SDS011;6692;50.710;7.180;2022-10-31T10:16:38;121.87;;;117.03;;
13250;SDS011;6692;50.710;7.180;2022-10-31T10:18:56;88.77;;;84.83;;
13250;SDS011;6692;50.710;7.180;2022-10-31T10:20:58;110.63;;;105.93;;
13250;SDS011;6692;50.710;7.180;2022-10-31T10:23:02;129.17;;;123.93;;
13250;SDS011;6692;50.710;7.180;2022-10-31T10:25:12;136.27;;;130.77;;
13250;SDS011;6692;50.710;7.180;2022-10-31T10:32:17;114.13;;;109.30;;
13250;SDS011;6692;50.710;7.180;2022-10-31T10:34:19;119.90;;;114.53;;
13250;SDS011;6692;50.710;7.180;2022-10-31T10:36:25;153.40;;;147.13;;
13250;SDS011;6692;50.710;7.180;2022-10-31T10:38:31;156.37;;;150.03;;
13250;SDS011;6692;50.710;7.180;2022-10-31T10:40:30;179.17;;;172.13;;
13250;SDS011;6692;50.710;7.180;2022-10-31T10:42:31;204.43;;;196.77;;
13250;SDS011;6692;50.710;7.180;2022-10-31T10:44:38;222.40;;;213.77;;
13250;SDS011;6692;50.710;7.180;2022-10-31T10:46:48;240.17;;;231.37;;
13250;SDS011;6692;50.710;7.180;2022-10-31T10:49:03;268.13;;;258.17;;
13250;SDS011;6692;50.710;7.180;2022-10-31T10:51:02;282.00;;;271.60;;
13250;SDS011;6692;50.710;7.180;2022-10-31T10:53:12;283.53;;;273.03;;
13250;SDS011;6692;50.710;7.180;2022-10-31T10:55:11;254.70;;;245.37;;
13250;SDS011;6692;50.710;7.180;2022-10-31T10:57:19;217.80;;;209.73;;
13250;SDS011;6692;50.710;7.180;2022-10-31T10:59:23;183.57;;;176.27;;
13250;SDS011;6692;50.710;7.180;2022-10-31T11:01:23;206.30;;;198.60;;
13250;SDS011;6692;50.710;7.180;2022-10-31T11:03:24;172.53;;;165.70;;
13250;SDS011;6692;50.710;7.180;2022-10-31T11:05:57;206.17;;;198.33;;
13250;SDS011;6692;50.710;7.180;2022-10-31T11:07:40;219.80;;;211.57;;
13250;SDS011;6692;50.710;7.180;2022-10-31T11:09:41;239.23;;;230.10;;
13250;SDS011;6692;50.710;7.180;2022-10-31T11:11:42;265.70;;;256.03;;
13250;SDS011;6692;50.710;7.180;2022-10-31T11:13:43;250.10;;;240.90;;
13250;SDS011;6692;50.710;7.180;2022-10-31T11:15:50;217.13;;;209.13;;
13250;SDS011;6692;50.710;7.180;2022-10-31T11:17:50;228.63;;;220.10;;
13250;SDS011;6692;50.710;7.180;2022-10-31T11:19:59;222.20;;;214.00;;
13250;SDS011;6692;50.710;7.180;2022-10-31T11:21:51;223.50;;;215.27;;
13250;SDS011;6692;50.710;7.180;2022-10-31T11:24:01;222.10;;;213.87;;
13250;SDS011;6692;50.710;7.180;2022-10-31T11:26:00;224.63;;;216.20;;
13250;SDS011;6692;50.710;7.180;2022-10-31T11:28:00;188.60;;;181.43;;
13250;SDS011;6692;50.710;7.180;2022-10-31T11:30:04;237.23;;;228.43;;
13250;SDS011;6692;50.710;7.180;2022-10-31T11:32:04;237.27;;;228.70;;
13250;SDS011;6692;50.710;7.180;2022-10-31T11:34:06;267.47;;;257.70;;
13250;SDS011;6692;50.710;7.180;2022-10-31T11:36:37;260.73;;;251.10;;
13250;SDS011;6692;50.710;7.180;2022-10-31T11:38:23;265.37;;;255.67;;
13250;SDS011;6692;50.710;7.180;2022-10-31T11:40:24;268.87;;;259.13;;
13250;SDS011;6692;50.710;7.180;2022-10-31T11:42:24;274.90;;;265.00;;
13250;SDS011;6692;50.710;7.180;2022-10-31T11:44:25;292.90;;;282.20;;
13250;SDS011;6692;50.710;7.180;2022-10-31T11:46:29;281.33;;;271.20;;
13250;SDS011;6692;50.710;7.180;2022-10-31T11:48:29;266.23;;;256.50;;
13250;SDS011;6692;50.710;7.180;2022-10-31T11:50:33;261.33;;;251.93;;
13250;SDS011;6692;50.710;7.180;2022-10-31T11:52:33;265.87;;;256.27;;
13250;SDS011;6692;50.710;7.180;2022-10-31T11:54:40;268.23;;;258.47;;
13250;SDS011;6692;50.710;7.180;2022-10-31T11:56:41;243.63;;;234.67;;
13250;SDS011;6692;50.710;7.180;2022-10-31T11:58:41;286.03;;;275.43;;
13250;SDS011;6692;50.710;7.180;2022-10-31T12:00:47;292.13;;;281.63;;
13250;SDS011;6692;50.710;7.180;2022-10-31T12:02:43;271.53;;;261.83;;
13250;SDS011;6692;50.710;7.180;2022-10-31T12:04:45;229.47;;;221.13;;
13250;SDS011;6692;50.710;7.180;2022-10-31T12:06:44;235.13;;;226.83;;
13250;SDS011;6692;50.710;7.180;2022-10-31T12:08:46;222.30;;;214.07;;
13250;SDS011;6692;50.710;7.180;2022-10-31T12:10:56;263.53;;;254.13;;
13250;SDS011;6692;50.710;7.180;2022-10-31T12:15:29;206.00;;;198.60;;
13250;SDS011;6692;50.710;7.180;2022-10-31T12:18:38;201.97;;;194.57;;
13250;SDS011;6692;50.710;7.180;2022-10-31T12:19:59;210.37;;;202.83;;